sensor_id;sensor_type;location;lat;lon;timestamp;P1;durP1;ratioP1;P2;durP2;ratioP2
3447;SDS011;1738;49.500;17.736;2023-07-16T00:01:38;8.27;;;7.13;;
3447;SDS011;1738;49.500;17.736;2023-07-16T00:04:04;9.13;;;6.97;;
3447;SDS011;1738;49.500;17.736;2023-07-16T00:06:30;18.60;;;6.93;;
3447;SDS011;1738;49.500;17.736;2023-07-16T00:08:56;10.30;;;7.17;;
3447;SDS011;1738;49.500;17.736;2023-07-16T00:11:21;9.80;;;7.20;;
3447;SDS011;1738;49.500;17.736;2023-07-16T00:13:47;12.73;;;7.80;;
3447;SDS011;1738;49.500;17.736;2023-07-16T00:16:13;8.87;;;8.00;;
3447;SDS011;1738;49.500;17.736;2023-07-16T00:18:41;8.20;;;7.40;;
3447;SDS011;1738;49.500;17.736;2023-07-16T00:21:05;9.60;;;8.60;;
3447;SDS011;1738;49.500;17.736;2023-07-16T00:23:31;9.20;;;8.30;;
3447;SDS011;1738;49.500;17.736;2023-07-16T00:25:56;10.03;;;8.90;;
3447;SDS011;1738;49.500;17.736;2023-07-16T00:28:22;9.50;;;8.60;;
3447;SDS011;1738;49.500;17.736;2023-07-16T00:30:48;9.67;;;8.40;;
3447;SDS011;1738;49.500;17.736;2023-07-16T00:33:14;13.37;;;8.83;;
3447;SDS011;1738;49.500;17.736;2023-07-16T00:35:46;10.27;;;8.90;;
3447;SDS011;1738;49.500;17.736;2023-07-16T00:38:06;14.07;;;9.73;;
3447;SDS011;1738;49.500;17.736;2023-07-16T00:40:32;10.83;;;9.60;;
3447;SDS011;1738;49.500;17.736;2023-07-16T00:42:57;10.23;;;9.13;;
3447;SDS011;1738;49.500;17.736;2023-07-16T00:45:23;10.50;;;9.50;;
3447;SDS011;1738;49.500;17.736;2023-07-16T00:47:49;12.20;;;9.30;;
3447;SDS011;1738;49.500;17.736;2023-07-16T00:50:15;12.80;;;10.60;;
3447;SDS011;1738;49.500;17.736;2023-07-16T00:52:41;11.00;;;9.93;;
3447;SDS011;1738;49.500;17.736;2023-07-16T00:55:07;11.07;;;9.90;;
3447;SDS011;1738;49.500;17.736;2023-07-16T00:57:33;12.50;;;9.87;;
3447;SDS011;1738;49.500;17.736;2023-07-16T00:59:59;13.10;;;10.50;;
3447;SDS011;1738;49.500;17.736;2023-07-16T01:02:25;11.10;;;9.60;;
3447;SDS011;1738;49.500;17.736;2023-07-16T01:04:51;11.40;;;10.30;;
3447;SDS011;1738;49.500;17.736;2023-07-16T01:07:16;11.50;;;10.43;;
3447;SDS011;1738;49.500;17.736;2023-07-16T01:09:42;11.63;;;10.07;;
3447;SDS011;1738;49.500;17.736;2023-07-16T01:12:08;16.50;;;10.00;;
3447;SDS011;1738;49.500;17.736;2023-07-16T01:14:34;11.77;;;10.55;;
3447;SDS011;1738;49.500;17.736;2023-07-16T01:17:03;13.00;;;11.70;;
3447;SDS011;1738;49.500;17.736;2023-07-16T01:19:28;11.27;;;10.17;;
3447;SDS011;1738;49.500;17.736;2023-07-16T01:22:01;14.90;;;10.73;;
3447;SDS011;1738;49.500;17.736;2023-07-16T01:24:27;12.70;;;11.37;;
3447;SDS011;1738;49.500;17.736;2023-07-16T01:26:51;12.93;;;11.10;;
3447;SDS011;1738;49.500;17.736;2023-07-16T01:29:34;13.83;;;11.93;;
3447;SDS011;1738;49.500;17.736;2023-07-16T01:32:00;13.50;;;12.10;;
3447;SDS011;1738;49.500;17.736;2023-07-16T01:34:25;14.32;;;12.50;;
3447;SDS011;1738;49.500;17.736;2023-07-16T01:36:51;13.70;;;10.93;;
3447;SDS011;1738;49.500;17.736;2023-07-16T01:39:17;12.40;;;11.30;;
3447;SDS011;1738;49.500;17.736;2023-07-16T01:41:43;13.20;;;12.00;;
3447;SDS011;1738;49.500;17.736;2023-07-16T01:44:08;14.43;;;13.10;;
3447;SDS011;1738;49.500;17.736;2023-07-16T01:46:34;13.93;;;12.53;;
3447;SDS011;1738;49.500;17.736;2023-07-16T01:49:00;16.92;;;14.50;;
3447;SDS011;1738;49.500;17.736;2023-07-16T01:51:26;13.70;;;12.33;;
3447;SDS011;1738;49.500;17.736;2023-07-16T01:53:52;14.70;;;13.37;;
3447;SDS011;1738;49.500;17.736;2023-07-16T01:56:18;14.33;;;13.03;;
3447;SDS011;1738;49.500;17.736;2023-07-16T01:58:43;14.50;;;12.73;;
3447;SDS011;1738;49.500;17.736;2023-07-16T02:01:09;15.67;;;13.93;;
3447;SDS011;1738;49.500;17.736;2023-07-16T02:03:35;14.10;;;12.80;;
3447;SDS011;1738;49.500;17.736;2023-07-16T02:06:01;14.20;;;12.80;;
3447;SDS011;1738;49.500;17.736;2023-07-16T02:08:27;14.30;;;12.93;;
3447;SDS011;1738;49.500;17.736;2023-07-16T02:10:53;13.40;;;12.00;;
3447;SDS011;1738;49.500;17.736;2023-07-16T02:13:19;14.93;;;12.67;;
3447;SDS011;1738;49.500;17.736;2023-07-16T02:15:45;15.50;;;14.00;;
3447;SDS011;1738;49.500;17.736;2023-07-16T02:18:11;17.70;;;14.97;;
3447;SDS011;1738;49.500;17.736;2023-07-16T02:20:37;17.20;;;14.27;;
3447;SDS011;1738;49.500;17.736;2023-07-16T02:23:02;15.53;;;14.13;;
3447;SDS011;1738;49.500;17.736;2023-07-16T02:25:28;16.67;;;14.97;;
3447;SDS011;1738;49.500;17.736;2023-07-16T02:27:54;18.35;;;15.07;;
3447;SDS011;1738;49.500;17.736;2023-07-16T02:30:20;15.10;;;13.60;;
3447;SDS011;1738;49.500;17.736;2023-07-16T02:32:46;16.03;;;14.43;;
3447;SDS011;1738;49.500;17.736;2023-07-16T02:35:12;17.27;;;15.67;;
3447;SDS011;1738;49.500;17.736;2023-07-16T02:37:37;17.27;;;15.40;;
3447;SDS011;1738;49.500;17.736;2023-07-16T02:40:04;18.13;;;15.97;;
3447;SDS011;1738;49.500;17.736;2023-07-16T02:42:30;18.00;;;16.30;;
3447;SDS011;1738;49.500;17.736;2023-07-16T02:44:55;19.55;;;16.75;;
3447;SDS011;1738;49.500;17.736;2023-07-16T02:47:21;17.20;;;15.60;;
3447;SDS011;1738;49.500;17.736;2023-07-16T02:49:50;20.10;;;18.23;;
3447;SDS011;1738;49.500;17.736;2023-07-16T02:52:13;17.87;;;16.27;;
3447;SDS011;1738;49.500;17.736;2023-07-16T02:54:39;17.50;;;15.77;;
3447;SDS011;1738;49.500;17.736;2023-07-16T02:57:05;18.37;;;16.47;;
3447;SDS011;1738;49.500;17.736;2023-07-16T02:59:31;19.53;;;17.60;;
3447;SDS011;1738;49.500;17.736;2023-07-16T03:01:56;17.50;;;15.80;;
3447;SDS011;1738;49.500;17.736;2023-07-16T03:04:22;17.17;;;15.37;;
3447;SDS011;1738;49.500;17.736;2023-07-16T03:06:48;22.00;;;16.73;;
3447;SDS011;1738;49.500;17.736;2023-07-16T03:09:14;26.03;;;17.63;;
3447;SDS011;1738;49.500;17.736;2023-07-16T03:11:40;19.47;;;17.40;;
3447;SDS011;1738;49.500;17.736;2023-07-16T03:14:06;20.03;;;18.17;;
3447;SDS011;1738;49.500;17.736;2023-07-16T03:16:31;21.50;;;19.40;;
3447;SDS011;1738;49.500;17.736;2023-07-16T03:18:57;19.07;;;17.07;;
3447;SDS011;1738;49.500;17.736;2023-07-16T03:21:23;19.23;;;17.27;;
3447;SDS011;1738;49.500;17.736;2023-07-16T03:23:49;20.53;;;18.50;;
3447;SDS011;1738;49.500;17.736;2023-07-16T03:26:15;23.77;;;19.10;;
3447;SDS011;1738;49.500;17.736;2023-07-16T03:28:41;22.30;;;19.97;;
3447;SDS011;1738;49.500;17.736;2023-07-16T03:31:06;20.37;;;18.40;;
3447;SDS011;1738;49.500;17.736;2023-07-16T03:33:32;19.87;;;17.87;;
3447;SDS011;1738;49.500;17.736;2023-07-16T03:35:58;21.70;;;19.30;;
3447;SDS011;1738;49.500;17.736;2023-07-16T03:38:24;19.20;;;17.40;;
3447;SDS011;1738;49.500;17.736;2023-07-16T03:40:50;20.00;;;18.20;;
3447;SDS011;1738;49.500;17.736;2023-07-16T03:43:16;19.52;;;17.55;;
3447;SDS011;1738;49.500;17.736;2023-07-16T03:45:42;20.40;;;18.40;;
3447;SDS011;1738;49.500;17.736;2023-07-16T03:48:07;19.77;;;17.80;;
3447;SDS011;1738;49.500;17.736;2023-07-16T03:50:33;22.50;;;19.43;;
3447;SDS011;1738;49.500;17.736;2023-07-16T03:52:59;20.00;;;18.10;;
3447;SDS011;1738;49.500;17.736;2023-07-16T03:55:25;19.40;;;17.40;;
3447;SDS011;1738;49.500;17.736;2023-07-16T03:57:51;20.67;;;18.47;;
3447;SDS011;1738;49.500;17.736;2023-07-16T04:00:17;21.20;;;19.20;;
3447;SDS011;1738;49.500;17.736;2023-07-16T04:02:42;21.43;;;19.43;;
3447;SDS011;1738;49.500;17.736;2023-07-16T04:05:09;20.17;;;18.17;;
3447;SDS011;1738;49.500;17.736;2023-07-16T04:07:34;24.43;;;21.93;;
3447;SDS011;1738;49.500;17.736;2023-07-16T04:10:00;23.42;;;21.02;;
3447;SDS011;1738;49.500;17.736;2023-07-16T04:12:26;21.90;;;19.80;;
3447;SDS011;1738;49.500;17.736;2023-07-16T04:14:56;20.62;;;18.17;;
3447;SDS011;1738;49.500;17.736;2023-07-16T04:17:18;25.20;;;18.63;;
3447;SDS011;1738;49.500;17.736;2023-07-16T04:19:43;19.37;;;17.50;;
3447;SDS011;1738;49.500;17.736;2023-07-16T04:22:09;21.30;;;16.50;;
3447;SDS011;1738;49.500;17.736;2023-07-16T04:24:35;18.63;;;16.70;;
3447;SDS011;1738;49.500;17.736;2023-07-16T04:27:01;20.13;;;17.80;;
3447;SDS011;1738;49.500;17.736;2023-07-16T04:29:27;16.07;;;14.67;;
3447;SDS011;1738;49.500;17.736;2023-07-16T04:31:53;17.10;;;15.60;;
3447;SDS011;1738;49.500;17.736;2023-07-16T04:34:18;16.50;;;14.90;;
3447;SDS011;1738;49.500;17.736;2023-07-16T04:36:44;16.97;;;15.47;;
3447;SDS011;1738;49.500;17.736;2023-07-16T04:39:10;16.27;;;14.63;;
3447;SDS011;1738;49.500;17.736;2023-07-16T04:41:36;14.90;;;13.47;;
3447;SDS011;1738;49.500;17.736;2023-07-16T04:44:02;13.70;;;12.30;;
3447;SDS011;1738;49.500;17.736;2023-07-16T04:46:28;14.57;;;13.17;;
3447;SDS011;1738;49.500;17.736;2023-07-16T04:48:54;14.27;;;12.97;;
3447;SDS011;1738;49.500;17.736;2023-07-16T04:51:20;13.87;;;12.23;;
3447;SDS011;1738;49.500;17.736;2023-07-16T04:53:45;13.67;;;10.80;;
3447;SDS011;1738;49.500;17.736;2023-07-16T04:56:12;14.00;;;12.60;;
3447;SDS011;1738;49.500;17.736;2023-07-16T04:58:38;11.50;;;10.40;;
3447;SDS011;1738;49.500;17.736;2023-07-16T05:01:04;11.13;;;10.00;;
3447;SDS011;1738;49.500;17.736;2023-07-16T05:03:30;11.17;;;10.07;;
3447;SDS011;1738;49.500;17.736;2023-07-16T05:05:55;13.20;;;10.80;;
3447;SDS011;1738;49.500;17.736;2023-07-16T05:08:21;14.93;;;9.90;;
3447;SDS011;1738;49.500;17.736;2023-07-16T05:10:47;16.97;;;10.70;;
3447;SDS011;1738;49.500;17.736;2023-07-16T05:13:14;17.83;;;10.97;;
3447;SDS011;1738;49.500;17.736;2023-07-16T05:15:39;10.13;;;9.13;;
3447;SDS011;1738;49.500;17.736;2023-07-16T05:18:05;10.67;;;9.53;;
3447;SDS011;1738;49.500;17.736;2023-07-16T05:20:31;11.38;;;9.80;;
3447;SDS011;1738;49.500;17.736;2023-07-16T05:22:57;13.33;;;9.17;;
3447;SDS011;1738;49.500;17.736;2023-07-16T05:25:23;10.32;;;9.32;;
3447;SDS011;1738;49.500;17.736;2023-07-16T05:27:49;10.73;;;9.73;;
3447;SDS011;1738;49.500;17.736;2023-07-16T05:30:15;10.37;;;9.27;;
3447;SDS011;1738;49.500;17.736;2023-07-16T05:32:40;11.57;;;10.30;;
3447;SDS011;1738;49.500;17.736;2023-07-16T05:35:06;11.20;;;10.10;;
3447;SDS011;1738;49.500;17.736;2023-07-16T05:37:32;10.97;;;9.83;;
3447;SDS011;1738;49.500;17.736;2023-07-16T05:39:58;12.40;;;11.27;;
3447;SDS011;1738;49.500;17.736;2023-07-16T05:42:24;12.40;;;11.20;;
3447;SDS011;1738;49.500;17.736;2023-07-16T05:44:50;13.27;;;10.23;;
3447;SDS011;1738;49.500;17.736;2023-07-16T05:47:16;12.03;;;10.87;;
3447;SDS011;1738;49.500;17.736;2023-07-16T05:49:42;14.20;;;12.23;;
3447;SDS011;1738;49.500;17.736;2023-07-16T05:52:07;15.13;;;12.10;;
3447;SDS011;1738;49.500;17.736;2023-07-16T05:54:33;21.00;;;12.00;;
3447;SDS011;1738;49.500;17.736;2023-07-16T05:56:59;16.27;;;11.77;;
3447;SDS011;1738;49.500;17.736;2023-07-16T05:59:25;12.20;;;11.10;;
3447;SDS011;1738;49.500;17.736;2023-07-16T06:01:51;11.30;;;10.07;;
3447;SDS011;1738;49.500;17.736;2023-07-16T06:04:17;12.87;;;11.63;;
3447;SDS011;1738;49.500;17.736;2023-07-16T06:06:43;13.40;;;10.80;;
3447;SDS011;1738;49.500;17.736;2023-07-16T06:09:08;18.27;;;10.63;;
3447;SDS011;1738;49.500;17.736;2023-07-16T06:11:34;11.97;;;10.47;;
3447;SDS011;1738;49.500;17.736;2023-07-16T06:14:00;10.13;;;9.13;;
3447;SDS011;1738;49.500;17.736;2023-07-16T06:16:26;11.40;;;10.40;;
3447;SDS011;1738;49.500;17.736;2023-07-16T06:18:52;12.50;;;10.43;;
3447;SDS011;1738;49.500;17.736;2023-07-16T06:21:18;10.30;;;9.20;;
3447;SDS011;1738;49.500;17.736;2023-07-16T06:23:43;11.23;;;10.10;;
3447;SDS011;1738;49.500;17.736;2023-07-16T06:26:09;12.20;;;11.10;;
3447;SDS011;1738;49.500;17.736;2023-07-16T06:28:35;11.93;;;10.57;;
3447;SDS011;1738;49.500;17.736;2023-07-16T06:31:01;12.87;;;9.53;;
3447;SDS011;1738;49.500;17.736;2023-07-16T06:33:27;15.23;;;9.20;;
3447;SDS011;1738;49.500;17.736;2023-07-16T06:35:53;12.00;;;10.00;;
3447;SDS011;1738;49.500;17.736;2023-07-16T06:38:19;11.30;;;9.97;;
3447;SDS011;1738;49.500;17.736;2023-07-16T06:40:46;13.23;;;9.87;;
3447;SDS011;1738;49.500;17.736;2023-07-16T06:43:11;12.20;;;9.77;;
3447;SDS011;1738;49.500;17.736;2023-07-16T06:45:37;10.80;;;9.70;;
3447;SDS011;1738;49.500;17.736;2023-07-16T06:48:03;10.90;;;9.80;;
3447;SDS011;1738;49.500;17.736;2023-07-16T06:50:29;11.73;;;8.73;;
3447;SDS011;1738;49.500;17.736;2023-07-16T06:52:55;10.90;;;8.20;;
3447;SDS011;1738;49.500;17.736;2023-07-16T06:55:21;18.33;;;8.50;;
3447;SDS011;1738;49.500;17.736;2023-07-16T06:57:46;9.77;;;8.87;;
3447;SDS011;1738;49.500;17.736;2023-07-16T07:00:12;12.37;;;9.10;;
3447;SDS011;1738;49.500;17.736;2023-07-16T07:02:38;9.37;;;8.47;;
3447;SDS011;1738;49.500;17.736;2023-07-16T07:05:04;9.97;;;9.07;;
3447;SDS011;1738;49.500;17.736;2023-07-16T07:07:30;10.80;;;8.60;;
3447;SDS011;1738;49.500;17.736;2023-07-16T07:09:56;9.60;;;8.70;;
3447;SDS011;1738;49.500;17.736;2023-07-16T07:12:22;10.10;;;9.07;;
3447;SDS011;1738;49.500;17.736;2023-07-16T07:14:48;11.97;;;8.43;;
3447;SDS011;1738;49.500;17.736;2023-07-16T07:17:14;16.00;;;9.73;;
3447;SDS011;1738;49.500;17.736;2023-07-16T07:19:39;11.30;;;8.73;;
3447;SDS011;1738;49.500;17.736;2023-07-16T07:22:05;13.20;;;9.47;;
3447;SDS011;1738;49.500;17.736;2023-07-16T07:24:31;11.30;;;10.20;;
3447;SDS011;1738;49.500;17.736;2023-07-16T07:26:57;10.70;;;9.57;;
3447;SDS011;1738;49.500;17.736;2023-07-16T07:29:23;11.07;;;9.93;;
3447;SDS011;1738;49.500;17.736;2023-07-16T07:31:48;10.90;;;9.90;;
3447;SDS011;1738;49.500;17.736;2023-07-16T07:34:14;12.97;;;10.03;;
3447;SDS011;1738;49.500;17.736;2023-07-16T07:36:40;10.50;;;9.50;;
3447;SDS011;1738;49.500;17.736;2023-07-16T07:39:06;9.93;;;8.87;;
3447;SDS011;1738;49.500;17.736;2023-07-16T07:41:32;10.07;;;9.10;;
3447;SDS011;1738;49.500;17.736;2023-07-16T07:43:58;10.47;;;9.37;;
3447;SDS011;1738;49.500;17.736;2023-07-16T07:46:23;9.63;;;8.73;;
3447;SDS011;1738;49.500;17.736;2023-07-16T07:48:49;11.90;;;9.70;;
3447;SDS011;1738;49.500;17.736;2023-07-16T07:51:15;11.53;;;10.43;;
3447;SDS011;1738;49.500;17.736;2023-07-16T07:53:41;11.10;;;9.87;;
3447;SDS011;1738;49.500;17.736;2023-07-16T07:56:07;11.20;;;9.70;;
3447;SDS011;1738;49.500;17.736;2023-07-16T07:58:33;10.63;;;9.63;;
3447;SDS011;1738;49.500;17.736;2023-07-16T08:01:04;11.67;;;10.47;;
3447;SDS011;1738;49.500;17.736;2023-07-16T08:03:28;10.13;;;9.23;;
3447;SDS011;1738;49.500;17.736;2023-07-16T08:05:54;11.13;;;10.13;;
3447;SDS011;1738;49.500;17.736;2023-07-16T08:08:20;11.27;;;9.80;;
3447;SDS011;1738;49.500;17.736;2023-07-16T08:10:46;10.80;;;9.70;;
3447;SDS011;1738;49.500;17.736;2023-07-16T08:13:12;11.27;;;10.37;;
3447;SDS011;1738;49.500;17.736;2023-07-16T08:15:38;15.20;;;9.20;;
3447;SDS011;1738;49.500;17.736;2023-07-16T08:18:03;10.23;;;9.27;;
3447;SDS011;1738;49.500;17.736;2023-07-16T08:20:29;11.23;;;10.17;;
3447;SDS011;1738;49.500;17.736;2023-07-16T08:22:55;10.60;;;9.27;;
3447;SDS011;1738;49.500;17.736;2023-07-16T08:25:21;10.97;;;9.93;;
3447;SDS011;1738;49.500;17.736;2023-07-16T08:27:47;10.60;;;9.60;;
3447;SDS011;1738;49.500;17.736;2023-07-16T08:30:13;11.57;;;10.07;;
3447;SDS011;1738;49.500;17.736;2023-07-16T08:32:39;13.17;;;9.87;;
3447;SDS011;1738;49.500;17.736;2023-07-16T08:35:05;12.07;;;10.70;;
3447;SDS011;1738;49.500;17.736;2023-07-16T08:37:31;11.40;;;9.87;;
3447;SDS011;1738;49.500;17.736;2023-07-16T08:39:57;14.40;;;9.43;;
3447;SDS011;1738;49.500;17.736;2023-07-16T08:42:22;12.60;;;10.37;;
3447;SDS011;1738;49.500;17.736;2023-07-16T08:44:48;11.47;;;10.37;;
3447;SDS011;1738;49.500;17.736;2023-07-16T08:47:14;12.70;;;11.50;;
3447;SDS011;1738;49.500;17.736;2023-07-16T08:49:40;11.47;;;10.37;;
3447;SDS011;1738;49.500;17.736;2023-07-16T08:52:06;13.83;;;11.57;;
3447;SDS011;1738;49.500;17.736;2023-07-16T08:54:32;11.73;;;10.07;;
3447;SDS011;1738;49.500;17.736;2023-07-16T08:56:58;13.03;;;11.83;;
3447;SDS011;1738;49.500;17.736;2023-07-16T08:59:24;12.43;;;10.50;;
3447;SDS011;1738;49.500;17.736;2023-07-16T09:01:50;15.30;;;10.07;;
3447;SDS011;1738;49.500;17.736;2023-07-16T09:04:15;12.53;;;11.43;;
3447;SDS011;1738;49.500;17.736;2023-07-16T09:06:41;13.20;;;10.63;;
3447;SDS011;1738;49.500;17.736;2023-07-16T09:09:07;11.60;;;10.40;;
3447;SDS011;1738;49.500;17.736;2023-07-16T09:11:33;11.10;;;10.20;;
3447;SDS011;1738;49.500;17.736;2023-07-16T09:14:01;14.07;;;10.45;;
3447;SDS011;1738;49.500;17.736;2023-07-16T09:16:25;12.13;;;10.50;;
3447;SDS011;1738;49.500;17.736;2023-07-16T09:18:51;11.20;;;10.20;;
3447;SDS011;1738;49.500;17.736;2023-07-16T09:21:16;12.00;;;10.80;;
3447;SDS011;1738;49.500;17.736;2023-07-16T09:23:42;13.80;;;11.47;;
3447;SDS011;1738;49.500;17.736;2023-07-16T09:26:08;10.83;;;9.83;;
3447;SDS011;1738;49.500;17.736;2023-07-16T09:28:34;18.97;;;11.60;;
3447;SDS011;1738;49.500;17.736;2023-07-16T09:31:04;12.80;;;10.43;;
3447;SDS011;1738;49.500;17.736;2023-07-16T09:33:30;12.20;;;11.00;;
3447;SDS011;1738;49.500;17.736;2023-07-16T09:35:54;12.27;;;11.07;;
3447;SDS011;1738;49.500;17.736;2023-07-16T09:38:20;11.43;;;10.23;;
3447;SDS011;1738;49.500;17.736;2023-07-16T09:40:46;12.13;;;10.83;;
3447;SDS011;1738;49.500;17.736;2023-07-16T09:43:12;10.67;;;9.57;;
3447;SDS011;1738;49.500;17.736;2023-07-16T09:45:38;10.90;;;9.80;;
3447;SDS011;1738;49.500;17.736;2023-07-16T09:48:04;11.40;;;10.30;;
3447;SDS011;1738;49.500;17.736;2023-07-16T09:50:32;13.07;;;10.00;;
3447;SDS011;1738;49.500;17.736;2023-07-16T09:52:57;11.73;;;9.40;;
3447;SDS011;1738;49.500;17.736;2023-07-16T09:55:23;13.03;;;10.87;;
3447;SDS011;1738;49.500;17.736;2023-07-16T09:57:48;12.47;;;11.17;;
3447;SDS011;1738;49.500;17.736;2023-07-16T10:00:14;10.40;;;9.40;;
3447;SDS011;1738;49.500;17.736;2023-07-16T10:02:40;12.63;;;10.40;;
3447;SDS011;1738;49.500;17.736;2023-07-16T10:05:11;12.30;;;10.30;;
3447;SDS011;1738;49.500;17.736;2023-07-16T10:07:36;11.93;;;10.67;;
3447;SDS011;1738;49.500;17.736;2023-07-16T10:10:06;12.20;;;9.90;;
3447;SDS011;1738;49.500;17.736;2023-07-16T10:12:29;12.52;;;9.65;;
3447;SDS011;1738;49.500;17.736;2023-07-16T10:14:55;11.30;;;10.20;;
3447;SDS011;1738;49.500;17.736;2023-07-16T10:17:23;11.30;;;10.20;;
3447;SDS011;1738;49.500;17.736;2023-07-16T10:19:50;14.40;;;9.88;;
3447;SDS011;1738;49.500;17.736;2023-07-16T10:22:15;13.23;;;10.23;;
3447;SDS011;1738;49.500;17.736;2023-07-16T10:24:41;11.73;;;10.60;;
3447;SDS011;1738;49.500;17.736;2023-07-16T10:27:07;9.90;;;9.00;;
3447;SDS011;1738;49.500;17.736;2023-07-16T10:29:33;12.80;;;10.33;;
3447;SDS011;1738;49.500;17.736;2023-07-16T10:31:59;12.03;;;10.00;;
3447;SDS011;1738;49.500;17.736;2023-07-16T10:34:24;10.57;;;9.47;;
3447;SDS011;1738;49.500;17.736;2023-07-16T10:36:50;8.90;;;8.10;;
3447;SDS011;1738;49.500;17.736;2023-07-16T10:39:16;9.00;;;8.20;;
3447;SDS011;1738;49.500;17.736;2023-07-16T10:41:42;9.50;;;8.60;;
3447;SDS011;1738;49.500;17.736;2023-07-16T10:44:08;10.53;;;8.53;;
3447;SDS011;1738;49.500;17.736;2023-07-16T10:46:34;9.47;;;8.27;;
3447;SDS011;1738;49.500;17.736;2023-07-16T10:49:00;12.20;;;9.53;;
3447;SDS011;1738;49.500;17.736;2023-07-16T10:51:26;9.33;;;8.03;;
3447;SDS011;1738;49.500;17.736;2023-07-16T10:53:51;9.70;;;8.80;;
3447;SDS011;1738;49.500;17.736;2023-07-16T10:56:17;11.20;;;9.90;;
3447;SDS011;1738;49.500;17.736;2023-07-16T10:58:43;18.03;;;11.10;;
3447;SDS011;1738;49.500;17.736;2023-07-16T11:01:09;63.93;;;15.00;;
3447;SDS011;1738;49.500;17.736;2023-07-16T11:03:35;11.73;;;9.37;;
3447;SDS011;1738;49.500;17.736;2023-07-16T11:06:08;12.90;;;9.67;;
3447;SDS011;1738;49.500;17.736;2023-07-16T11:08:32;10.53;;;9.40;;
3447;SDS011;1738;49.500;17.736;2023-07-16T11:10:58;10.70;;;8.30;;
3447;SDS011;1738;49.500;17.736;2023-07-16T11:13:26;10.67;;;8.10;;
3447;SDS011;1738;49.500;17.736;2023-07-16T11:15:52;9.00;;;8.17;;
3447;SDS011;1738;49.500;17.736;2023-07-16T11:18:17;10.10;;;9.20;;
3447;SDS011;1738;49.500;17.736;2023-07-16T11:20:43;14.93;;;9.13;;
3447;SDS011;1738;49.500;17.736;2023-07-16T11:23:10;10.17;;;8.20;;
3447;SDS011;1738;49.500;17.736;2023-07-16T11:25:35;9.63;;;8.77;;
3447;SDS011;1738;49.500;17.736;2023-07-16T11:28:01;14.23;;;9.20;;
3447;SDS011;1738;49.500;17.736;2023-07-16T11:30:27;10.50;;;7.73;;
3447;SDS011;1738;49.500;17.736;2023-07-16T11:32:53;10.23;;;9.23;;
3447;SDS011;1738;49.500;17.736;2023-07-16T11:35:19;11.10;;;9.50;;
3447;SDS011;1738;49.500;17.736;2023-07-16T11:37:45;8.40;;;7.60;;
3447;SDS011;1738;49.500;17.736;2023-07-16T11:40:11;10.07;;;9.17;;
3447;SDS011;1738;49.500;17.736;2023-07-16T11:42:37;11.73;;;9.37;;
3447;SDS011;1738;49.500;17.736;2023-07-16T11:45:02;10.00;;;8.83;;
3447;SDS011;1738;49.500;17.736;2023-07-16T11:47:28;10.30;;;9.30;;
3447;SDS011;1738;49.500;17.736;2023-07-16T11:49:54;13.13;;;8.77;;
3447;SDS011;1738;49.500;17.736;2023-07-16T11:52:21;12.00;;;9.43;;
3447;SDS011;1738;49.500;17.736;2023-07-16T11:54:46;11.13;;;9.70;;
3447;SDS011;1738;49.500;17.736;2023-07-16T11:57:12;10.90;;;9.03;;
3447;SDS011;1738;49.500;17.736;2023-07-16T11:59:38;14.00;;;9.30;;
3447;SDS011;1738;49.500;17.736;2023-07-16T12:02:04;9.33;;;8.43;;
3447;SDS011;1738;49.500;17.736;2023-07-16T12:04:30;12.30;;;8.57;;
3447;SDS011;1738;49.500;17.736;2023-07-16T12:06:55;9.80;;;8.80;;
3447;SDS011;1738;49.500;17.736;2023-07-16T12:09:21;10.10;;;9.17;;
3447;SDS011;1738;49.500;17.736;2023-07-16T12:11:47;11.70;;;8.80;;
3447;SDS011;1738;49.500;17.736;2023-07-16T12:14:13;8.87;;;8.07;;
3447;SDS011;1738;49.500;17.736;2023-07-16T12:16:39;10.00;;;7.87;;
3447;SDS011;1738;49.500;17.736;2023-07-16T12:19:07;9.67;;;8.00;;
3447;SDS011;1738;49.500;17.736;2023-07-16T12:21:31;8.70;;;7.87;;
3447;SDS011;1738;49.500;17.736;2023-07-16T12:23:57;10.50;;;8.00;;
3447;SDS011;1738;49.500;17.736;2023-07-16T12:26:23;7.87;;;7.17;;
3447;SDS011;1738;49.500;17.736;2023-07-16T12:28:49;9.17;;;8.27;;
3447;SDS011;1738;49.500;17.736;2023-07-16T12:31:15;9.87;;;7.33;;
3447;SDS011;1738;49.500;17.736;2023-07-16T12:33:41;9.23;;;8.20;;
3447;SDS011;1738;49.500;17.736;2023-07-16T12:36:07;8.90;;;7.53;;
3447;SDS011;1738;49.500;17.736;2023-07-16T12:38:32;9.53;;;7.57;;
3447;SDS011;1738;49.500;17.736;2023-07-16T12:40:58;11.13;;;8.07;;
3447;SDS011;1738;49.500;17.736;2023-07-16T12:43:25;9.70;;;6.47;;
3447;SDS011;1738;49.500;17.736;2023-07-16T12:45:50;10.50;;;6.90;;
3447;SDS011;1738;49.500;17.736;2023-07-16T12:48:16;9.33;;;7.20;;
3447;SDS011;1738;49.500;17.736;2023-07-16T12:50:42;8.07;;;7.27;;
3447;SDS011;1738;49.500;17.736;2023-07-16T12:53:08;8.20;;;7.13;;
3447;SDS011;1738;49.500;17.736;2023-07-16T12:55:34;8.05;;;6.25;;
3447;SDS011;1738;49.500;17.736;2023-07-16T12:58:00;7.33;;;6.63;;
3447;SDS011;1738;49.500;17.736;2023-07-16T13:00:26;9.43;;;6.93;;
3447;SDS011;1738;49.500;17.736;2023-07-16T13:02:51;12.47;;;6.90;;
3447;SDS011;1738;49.500;17.736;2023-07-16T13:05:17;8.60;;;5.77;;
3447;SDS011;1738;49.500;17.736;2023-07-16T13:07:43;6.97;;;6.33;;
3447;SDS011;1738;49.500;17.736;2023-07-16T13:10:09;8.18;;;7.37;;
3447;SDS011;1738;49.500;17.736;2023-07-16T13:12:35;9.53;;;7.20;;
3447;SDS011;1738;49.500;17.736;2023-07-16T13:15:01;8.10;;;6.50;;
3447;SDS011;1738;49.500;17.736;2023-07-16T13:17:26;7.43;;;6.33;;
3447;SDS011;1738;49.500;17.736;2023-07-16T13:19:52;11.07;;;6.53;;
3447;SDS011;1738;49.500;17.736;2023-07-16T13:22:18;9.40;;;7.15;;
3447;SDS011;1738;49.500;17.736;2023-07-16T13:24:44;8.77;;;7.03;;
3447;SDS011;1738;49.500;17.736;2023-07-16T13:27:19;8.93;;;7.18;;
3447;SDS011;1738;49.500;17.736;2023-07-16T13:29:36;7.18;;;6.47;;
3447;SDS011;1738;49.500;17.736;2023-07-16T13:32:02;8.60;;;6.65;;
3447;SDS011;1738;49.500;17.736;2023-07-16T13:34:28;15.15;;;7.35;;
3447;SDS011;1738;49.500;17.736;2023-07-16T13:36:53;9.17;;;7.60;;
3447;SDS011;1738;49.500;17.736;2023-07-16T13:39:19;8.30;;;6.83;;
3447;SDS011;1738;49.500;17.736;2023-07-16T13:41:45;7.70;;;6.83;;
3447;SDS011;1738;49.500;17.736;2023-07-16T13:44:11;7.70;;;6.97;;
3447;SDS011;1738;49.500;17.736;2023-07-16T13:46:37;7.70;;;6.43;;
3447;SDS011;1738;49.500;17.736;2023-07-16T13:49:03;8.90;;;6.60;;
3447;SDS011;1738;49.500;17.736;2023-07-16T13:51:29;12.43;;;8.05;;
3447;SDS011;1738;49.500;17.736;2023-07-16T13:53:54;9.07;;;7.63;;
3447;SDS011;1738;49.500;17.736;2023-07-16T13:56:20;8.20;;;6.40;;
3447;SDS011;1738;49.500;17.736;2023-07-16T13:58:46;8.53;;;7.20;;
3447;SDS011;1738;49.500;17.736;2023-07-16T14:01:12;9.13;;;7.10;;
3447;SDS011;1738;49.500;17.736;2023-07-16T14:03:38;8.27;;;6.20;;
3447;SDS011;1738;49.500;17.736;2023-07-16T14:06:04;9.50;;;7.50;;
3447;SDS011;1738;49.500;17.736;2023-07-16T14:08:29;8.23;;;6.65;;
3447;SDS011;1738;49.500;17.736;2023-07-16T14:10:55;9.95;;;6.95;;
3447;SDS011;1738;49.500;17.736;2023-07-16T14:13:21;16.20;;;6.57;;
3447;SDS011;1738;49.500;17.736;2023-07-16T14:15:47;6.85;;;6.15;;
3447;SDS011;1738;49.500;17.736;2023-07-16T14:18:13;10.48;;;6.53;;
3447;SDS011;1738;49.500;17.736;2023-07-16T14:20:39;8.45;;;6.70;;
3447;SDS011;1738;49.500;17.736;2023-07-16T14:23:05;12.96;;;7.42;;
3447;SDS011;1738;49.500;17.736;2023-07-16T14:25:31;9.87;;;6.90;;
3447;SDS011;1738;49.500;17.736;2023-07-16T14:27:56;6.72;;;6.03;;
3447;SDS011;1738;49.500;17.736;2023-07-16T14:30:22;8.50;;;7.70;;
3447;SDS011;1738;49.500;17.736;2023-07-16T14:32:48;10.43;;;7.90;;
3447;SDS011;1738;49.500;17.736;2023-07-16T14:35:14;8.38;;;7.57;;